Roland Colony, South Dakota
Current Conditions -  °F | °C
As of 11:33 PM on Saturday 20 Dec 2014 (Local Time) from KCNB Reporting Station
Haze Haze  
Wind Chill: 25°   Ceiling: 800
Heat Index: 32°   Visibility: 5mi
Dew Point: 30°   Wind: 7mph
Humidity: 94%   Direction: 180°S
Pressure: 29.97"   Gusts: NA
Location:  44.4253°N, 96.5963°W
Report Text: KCNB 210533Z AUTO 18006KT 5SM BR OVC008 00/M01 A2997 RMK AO2 T10011010
Loading
Personal Weather Stations






























Interactive Weather Map New forecast layout! Learn more

10-Day Weather Forecast

Advertisements
Track Severe Weather on mobile